Terminal Aerodrome Forecast
Issued by NWS

Home | Current Version | Previous Version | Graphics & Text | Print | Product List | Glossary Off
Versions: 1 2 3 4 5 6 7 8 9 10 11 12 13 14 15

577
FTUS43 KGRB 132320
TAFAUW
TAF
KAUW 132320Z 1400/1424 VRB03KT P6SM SKC
     FM140300 00000KT P6SM SCT250
     FM140900 13003KT P6SM BKN250
     FM141500 14008KT P6SM FEW040 BKN100
     FM142100 13007KT P6SM -SN SCT020 OVC035=

USA.gov is the U.S. government's official web portal to all federal, state and local government web resources and services.